createdAt,value
2022-11-29T00:10:25.302Z,7.6
2022-11-29T00:12:27.104Z,7.4
2022-11-29T00:14:28.929Z,7.5
2022-11-29T00:16:33.518Z,7.5
2022-11-29T00:18:35.239Z,7.4
2022-11-29T00:20:37.053Z,7.5
2022-11-29T00:22:42.387Z,7.4
2022-11-29T00:26:45.248Z,7.5
2022-11-29T00:40:43.672Z,7.5
2022-11-29T00:42:45.502Z,7.5
2022-11-29T00:51:45.516Z,7.5
2022-11-29T00:53:47.340Z,7.4
2022-11-29T00:55:49.120Z,7.4
2022-11-29T00:57:53.638Z,7.4
2022-11-29T01:01:57.302Z,7.3
2022-11-29T01:06:03.596Z,7.3
2022-11-29T01:08:05.400Z,7.4
2022-11-29T01:10:09.914Z,7.4
2022-11-29T01:12:11.708Z,7.3
2022-11-29T01:16:18.064Z,7.3
2022-11-29T01:18:19.851Z,7.4
2022-11-29T01:20:21.669Z,7.4
2022-11-29T01:22:26.233Z,7.4
2022-11-29T01:24:28.033Z,7.4
2022-11-29T01:26:29.800Z,7.4
2022-11-29T01:28:34.303Z,7.5
2022-11-29T01:30:36.200Z,7.4
2022-11-29T01:32:37.985Z,7.4
2022-11-29T01:41:37.996Z,7.4
2022-11-29T01:43:39.826Z,7.3
2022-11-29T01:47:46.157Z,7.3
2022-11-29T01:49:47.966Z,7.4
2022-11-29T01:51:49.778Z,7.3
2022-11-29T01:53:54.273Z,7.4
2022-11-29T01:55:56.132Z,7.3
2022-11-29T01:57:57.926Z,7.3
2022-11-29T02:00:02.452Z,7.3
2022-11-29T02:04:06.062Z,7.3
2022-11-29T02:06:10.576Z,7.3
2022-11-29T02:10:14.224Z,7.4
2022-11-29T02:12:18.729Z,7.4
2022-11-29T02:16:22.398Z,7.4
2022-11-29T02:18:26.878Z,7.4
2022-11-29T02:20:28.708Z,7.3
2022-11-29T02:22:30.542Z,7.3
2022-11-29T02:24:35.028Z,7.4
2022-11-29T02:26:36.856Z,7.3
2022-11-29T02:28:38.680Z,7.3
2022-11-29T02:30:43.307Z,7.3
2022-11-29T02:36:51.341Z,7.3
2022-11-29T02:38:53.157Z,7.3
2022-11-29T02:40:54.968Z,7.3
2022-11-29T02:42:59.501Z,7.4
2022-11-29T02:45:01.307Z,7.4
2022-11-29T02:47:03.110Z,7.4
2022-11-29T02:49:07.617Z,7.4
2022-11-29T02:51:09.437Z,7.3
2022-11-29T02:53:11.253Z,7.4
2022-11-29T02:58:19.411Z,7.3
2022-11-29T03:02:23.106Z,7.4
2022-11-29T03:04:27.583Z,7.4
2022-11-29T03:06:29.407Z,7.3
2022-11-29T03:08:31.238Z,7.3
2022-11-29T03:10:35.737Z,7.4
2022-11-29T03:12:37.526Z,7.4
2022-11-29T03:16:43.868Z,7.4
2022-11-29T03:18:45.683Z,7.4
2022-11-29T03:20:47.499Z,7.4
2022-11-29T03:22:51.990Z,7.4
2022-11-29T03:24:53.822Z,7.4
2022-11-29T03:26:55.689Z,7.3
2022-11-29T04:08:28.351Z,7.4
2022-11-29T04:10:30.175Z,7.3
2022-11-29T04:12:31.955Z,7.2
2022-11-29T04:14:36.527Z,7.3
2022-11-29T04:16:38.256Z,7.2
2022-11-29T04:18:40.081Z,7.2
2022-11-29T04:23:53.986Z,7.3
2022-11-29T04:25:55.786Z,7.2
2022-11-29T04:33:11.519Z,7.2
2022-11-29T04:35:13.320Z,7.3
2022-11-29T04:37:15.135Z,7.2
2022-11-29T04:39:19.649Z,7.2
2022-11-29T04:41:21.483Z,7.3
2022-11-29T04:43:23.277Z,7.2
2022-11-29T04:52:23.342Z,7.3
2022-11-29T04:54:24.987Z,7.2
2022-11-29T04:56:26.728Z,7.1
2022-11-29T04:58:31.208Z,7.2
2022-11-29T05:00:33.106Z,7.2
2022-11-29T05:02:34.985Z,7.1
2022-11-29T05:04:39.331Z,7.1
2022-11-29T05:06:41.148Z,7.2
2022-11-29T05:08:42.964Z,7.2
2022-11-29T05:13:51.783Z,7.2
2022-11-29T05:15:53.574Z,7.1
2022-11-29T05:17:55.219Z,7.1
2022-11-29T05:25:10.836Z,7.1
2022-11-29T05:27:12.660Z,7.1
2022-11-29T05:29:17.169Z,7.2
2022-11-29T05:31:19.008Z,7.1
2022-11-29T05:33:20.794Z,7
2022-11-29T05:39:28.936Z,7.1
2022-11-29T05:41:33.419Z,7.1
2022-11-29T05:43:35.251Z,7
2022-11-29T05:45:37.066Z,7
2022-11-29T05:47:41.557Z,7.1
2022-11-29T05:49:43.390Z,7
2022-11-29T05:51:45.175Z,7.1
2022-11-29T05:53:49.685Z,7.1
2022-11-29T05:55:51.516Z,7
2022-11-29T05:57:53.320Z,7
2022-11-29T06:01:59.720Z,7
2022-11-29T06:04:01.450Z,7
2022-11-29T06:06:05.945Z,7.1
2022-11-29T06:08:07.776Z,7.1
2022-11-29T06:10:09.580Z,7.1
2022-11-29T06:12:19.534Z,7
2022-11-29T06:14:15.925Z,7
2022-11-29T06:16:17.777Z,7
2022-11-29T06:18:22.209Z,7
2022-11-29T06:20:24.047Z,6.9
2022-11-29T06:22:25.872Z,6.9
2022-11-29T06:26:32.163Z,6.9
2022-11-29T06:28:33.949Z,6.9
2022-11-29T06:32:40.281Z,6.8
2022-11-29T06:34:42.072Z,6.8
2022-11-29T06:36:46.568Z,6.7
2022-11-29T06:38:48.380Z,6.7
2022-11-29T06:40:50.172Z,6.8
2022-11-29T06:59:14.576Z,6.8
2022-11-29T07:01:19.123Z,6.8
2022-11-29T07:03:20.864Z,6.7
2022-11-29T07:05:22.683Z,6.7
2022-11-29T07:07:27.238Z,6.8
2022-11-29T07:09:29.007Z,6.7
2022-11-29T07:11:30.791Z,6.8
2022-11-29T07:13:35.287Z,6.7
2022-11-29T07:15:37.094Z,6.8
2022-11-29T07:17:38.918Z,6.8
2022-11-29T07:19:43.424Z,6.8
2022-11-29T07:21:45.239Z,6.7
2022-11-29T07:23:47.019Z,6.7
2022-11-29T07:25:51.564Z,6.7
2022-11-29T07:29:55.149Z,6.7
2022-11-29T07:31:59.644Z,6.7
2022-11-29T07:34:01.459Z,6.7
2022-11-29T07:36:03.233Z,6.7
2022-11-29T07:38:07.705Z,6.6
2022-11-29T07:40:09.533Z,6.6
2022-11-29T07:42:11.329Z,6.7
2022-11-29T07:46:17.652Z,6.7
2022-11-29T07:48:19.425Z,6.7
2022-11-29T07:55:32.510Z,6.7
2022-11-29T08:03:42.414Z,6.7
2022-11-29T08:11:55.007Z,6.7
2022-11-29T08:18:03.086Z,6.7
2022-11-29T08:20:04.892Z,6.7
2022-11-29T08:22:06.703Z,6.7
2022-11-29T08:24:11.186Z,6.8
2022-11-29T08:26:12.996Z,6.8
2022-11-29T08:28:14.811Z,6.8
2022-11-29T08:37:14.741Z,6.9
2022-11-29T08:39:16.601Z,6.8
2022-11-29T08:41:18.357Z,6.9
2022-11-29T08:43:22.861Z,6.9
2022-11-29T08:45:24.670Z,6.9
2022-11-29T08:47:26.443Z,6.9
2022-11-29T08:49:30.940Z,6.9
2022-11-29T08:51:32.749Z,6.9
2022-11-29T08:53:34.537Z,6.9
2022-11-29T08:57:41.315Z,7
2022-11-29T08:59:42.643Z,7
2022-11-29T09:01:47.263Z,7
2022-11-29T09:05:50.776Z,7
2022-11-29T09:07:55.302Z,7
2022-11-29T09:14:03.401Z,7
2022-11-29T09:16:05.274Z,7.1
2022-11-29T09:20:11.540Z,7.1
2022-11-29T09:22:13.379Z,7.1
2022-11-29T09:24:15.192Z,7.1
2022-11-29T09:26:19.739Z,7.2
2022-11-29T09:28:21.495Z,7.2
2022-11-29T09:30:23.960Z,7.2
2022-11-29T09:32:27.838Z,7.2
2022-11-29T09:34:29.684Z,7.3
2022-11-29T09:36:31.507Z,7.3
2022-11-29T09:39:51.178Z,7.4
2022-11-29T09:40:41.535Z,7.4
2022-11-29T09:42:39.593Z,7.4
2022-11-29T10:12:06.030Z,7.9
2022-11-29T10:26:32.015Z,8
2022-11-29T10:28:28.676Z,8
2022-11-29T10:30:30.594Z,7.9
2022-11-29T10:32:35.058Z,7.9
2022-11-29T10:34:36.859Z,8
2022-11-29T10:36:38.692Z,8
2022-11-29T10:38:43.217Z,8.1
2022-11-29T10:40:45.057Z,8
2022-11-29T10:42:46.814Z,8.1
2022-11-29T10:48:55.016Z,8.1
2022-11-29T10:57:07.559Z,8.3
2022-11-29T11:11:25.305Z,8.6
2022-11-29T11:13:27.088Z,8.6
2022-11-29T11:15:31.489Z,8.7
2022-11-29T11:19:35.168Z,8.7
2022-11-29T11:23:42.923Z,8.6
2022-11-29T11:27:47.923Z,8.6
2022-11-29T11:29:49.769Z,8.7
2022-11-29T11:31:51.628Z,8.6
2022-11-29T11:34:15.538Z,8.7
2022-11-29T11:36:17.332Z,8.7
2022-11-29T11:38:19.079Z,9
2022-11-29T11:40:24.389Z,9.2
2022-11-29T11:42:26.171Z,9.4
2022-11-29T11:44:46.910Z,9.4
2022-11-29T11:46:29.957Z,9.3
2022-11-29T11:48:31.745Z,9.3
2022-11-29T11:50:33.583Z,9.2
2022-11-29T11:52:39.822Z,9.2
2022-11-29T11:54:40.590Z,9.1
2022-11-29T11:56:42.365Z,9.2
2022-11-29T11:58:44.099Z,9.2
2022-11-29T12:01:03.344Z,9.1
2022-11-29T12:02:47.732Z,9
2022-11-29T12:04:49.433Z,9.1
2022-11-29T12:06:51.202Z,9.3
2022-11-29T12:08:56.404Z,9.4
2022-11-29T12:12:59.996Z,9.4
2022-11-29T12:15:01.826Z,9.3
2022-11-29T12:19:05.340Z,9.3
2022-11-29T12:21:07.219Z,9.4
2022-11-29T12:25:14.202Z,9.4
2022-11-29T12:27:15.971Z,9.1
2022-11-29T12:28:20.637Z,9.1
2022-11-29T12:30:20.356Z,9
2022-11-29T12:32:22.084Z,8.9
2022-11-29T12:34:24.023Z,8.9
2022-11-29T12:36:29.312Z,9.2
2022-11-29T12:40:32.840Z,9.2
2022-11-29T12:42:34.596Z,9.4
2022-11-29T12:44:36.394Z,9.6
2022-11-29T12:46:38.252Z,9.8
2022-11-29T12:48:39.977Z,10.1
2022-11-29T12:50:45.188Z,9.9
2022-11-29T12:52:46.973Z,9.9
2022-11-29T12:54:48.810Z,9.4
2022-11-29T12:56:50.684Z,9.3
2022-11-29T12:58:52.575Z,9.7
2022-11-29T13:00:54.404Z,10.3
2022-11-29T13:02:56.328Z,10.4
2022-11-29T13:07:03.349Z,9.5
2022-11-29T13:09:05.253Z,9.3
2022-11-29T13:11:07.059Z,9.4
2022-11-29T13:13:08.923Z,9.7
2022-11-29T13:15:10.779Z,9.6
2022-11-29T13:17:12.612Z,9.3
2022-11-29T13:19:18.059Z,9.3
2022-11-29T13:21:19.902Z,9.6
2022-11-29T13:23:39.028Z,10.1
2022-11-29T13:24:24.353Z,10.5
2022-11-29T13:26:26.110Z,10.9
2022-11-29T13:28:27.882Z,11.7
2022-11-29T13:30:29.643Z,11.5
2022-11-29T13:32:34.856Z,11.5
2022-11-29T13:34:36.604Z,11.8
2022-11-29T13:36:38.358Z,10.9
2022-11-29T13:38:40.104Z,10.5
2022-11-29T13:40:41.894Z,10.2
2022-11-29T13:42:43.644Z,10.9
2022-11-29T13:44:45.698Z,11.5
2022-11-29T13:46:50.850Z,11.2
2022-11-29T13:48:52.566Z,11.4
2022-11-29T13:50:54.303Z,11.5
2022-11-29T13:52:56.051Z,11.4
2022-11-29T13:54:57.796Z,10.9
2022-11-29T13:56:59.560Z,10.8
2022-11-29T13:59:01.334Z,10.7
2022-11-29T14:01:06.657Z,10.4
2022-11-29T14:03:08.530Z,10.4
2022-11-29T14:05:10.104Z,10.3
2022-11-29T14:07:11.919Z,10.3
2022-11-29T14:09:20.007Z,10.3
2022-11-29T14:13:17.209Z,9.9
2022-11-29T14:17:24.264Z,10
2022-11-29T14:26:33.980Z,10.2
2022-11-29T14:28:39.274Z,10.1
2022-11-29T14:30:41.040Z,10
2022-11-29T14:38:48.178Z,9.8
2022-11-29T14:40:50.162Z,9.8
2022-11-29T14:42:55.304Z,9.7
2022-11-29T14:44:57.043Z,9.6
2022-11-29T14:46:58.866Z,9.5
2022-11-29T14:49:00.612Z,9.5
2022-11-29T14:53:04.167Z,9.7
2022-11-29T14:55:05.907Z,9.6
2022-11-29T14:57:11.177Z,9.2
2022-11-29T14:59:12.933Z,9.2
2022-11-29T15:01:14.753Z,9.1
2022-11-29T15:03:16.474Z,9.1
2022-11-29T15:05:18.353Z,9
2022-11-29T15:07:20.289Z,9
2022-11-29T15:09:21.954Z,9
2022-11-29T15:11:27.225Z,9
2022-11-29T15:13:29.007Z,8.9
2022-11-29T15:15:30.791Z,8.9
2022-11-29T15:17:35.214Z,8.8
2022-11-29T15:19:36.981Z,8.7
2022-11-29T15:21:38.760Z,8.7
2022-11-29T15:23:43.190Z,8.6
2022-11-29T15:25:44.974Z,8.6
2022-11-29T15:27:46.784Z,8.6
2022-11-29T15:29:51.272Z,8.5
2022-11-29T15:31:53.092Z,8.5
2022-11-29T15:33:54.773Z,8.5
2022-11-29T15:35:59.203Z,8.5
2022-11-29T15:38:01.075Z,8.5
2022-11-29T15:40:02.915Z,8.5
2022-11-29T15:42:07.448Z,8.4
2022-11-29T15:44:09.292Z,8.4
2022-11-29T15:46:11.188Z,8.4
2022-11-29T15:48:15.709Z,8.4
2022-11-29T15:50:17.428Z,8.4
2022-11-29T15:52:20.548Z,8.4
2022-11-29T15:58:27.491Z,8.3
2022-11-29T16:12:48.453Z,8.2
2022-11-29T16:20:58.552Z,8.1
2022-11-29T16:30:12.509Z,8.1
2022-11-29T16:34:20.515Z,8.2
2022-11-29T16:40:28.757Z,8.1
2022-11-29T16:48:38.490Z,8.2
2022-11-29T16:50:40.225Z,8.1
2022-11-29T16:56:48.073Z,8.1
2022-11-29T16:59:25.826Z,8.1
2022-11-29T17:02:55.990Z,8.1
2022-11-29T17:05:00.517Z,8.2
2022-11-29T17:07:02.357Z,8.2
2022-11-29T17:08:58.559Z,8.2
2022-11-29T17:11:03.103Z,8.2
2022-11-29T17:13:04.942Z,8.1
2022-11-29T17:19:13.140Z,8.1
2022-11-29T17:21:14.980Z,8.1
2022-11-29T17:23:19.495Z,8.2
2022-11-29T17:25:21.402Z,8.1
2022-11-29T17:39:39.557Z,8.2
2022-11-29T17:45:47.769Z,8.2
2022-11-29T17:47:52.268Z,8.2
2022-11-29T17:49:54.093Z,8.2
2022-11-29T17:51:55.961Z,8.2
2022-11-29T17:54:00.434Z,8.2
2022-11-29T17:56:02.344Z,8.2
2022-11-29T17:58:04.130Z,8.3
2022-11-29T18:05:17.233Z,8.2
2022-11-29T18:07:19.014Z,8.2
2022-11-29T18:09:23.345Z,8.3
2022-11-29T18:11:25.112Z,8.3
2022-11-29T18:13:26.903Z,8.3
2022-11-29T18:15:31.413Z,8.3
2022-11-29T18:19:34.951Z,8.3
2022-11-29T18:21:39.462Z,8.3
2022-11-29T18:23:41.215Z,8.3
2022-11-29T18:25:42.954Z,8.3
2022-11-29T18:27:47.443Z,8.3
2022-11-29T18:29:49.486Z,8.3
2022-11-29T18:31:51.074Z,8.3
2022-11-29T18:33:55.576Z,8.3
2022-11-29T18:35:57.441Z,8.4
2022-11-29T18:38:14.661Z,8.4
2022-11-29T18:45:12.367Z,8.4
2022-11-29T18:49:18.756Z,8.3
2022-11-29T18:53:22.409Z,8.4
2022-11-29T18:56:06.422Z,8.4
2022-11-29T19:04:46.201Z,8.4
2022-11-29T19:06:47.713Z,8.4
2022-11-29T19:08:49.536Z,8.3
2022-11-29T19:10:54.080Z,8.4
2022-11-29T19:12:56.002Z,8.4
2022-11-29T19:14:57.777Z,8.4
2022-11-29T19:25:12.343Z,8.4
2022-11-29T19:27:14.189Z,8.4
2022-11-29T19:29:18.702Z,8.4
2022-11-29T19:31:20.599Z,8.4
2022-11-29T19:35:26.870Z,8.4
2022-11-29T19:37:28.707Z,8.4
2022-11-29T19:39:30.543Z,8.4
2022-11-29T19:41:35.066Z,8.5
2022-11-29T19:43:36.756Z,8.4
2022-11-29T19:45:38.486Z,8.4
2022-11-29T19:52:51.514Z,8.4
2022-11-29T19:54:53.273Z,8.3
2022-11-29T19:56:57.683Z,8.3
2022-11-29T19:58:59.419Z,8
2022-11-29T20:01:01.172Z,8
2022-11-29T20:03:05.605Z,8
2022-11-29T20:05:07.270Z,8
2022-11-29T20:07:08.991Z,7.9
2022-11-29T20:09:13.430Z,8
2022-11-29T20:11:15.163Z,8
2022-11-29T20:13:16.926Z,8.1
2022-11-29T20:15:21.323Z,8
2022-11-29T20:17:23.165Z,8
2022-11-29T20:19:25.001Z,7.9
2022-11-29T20:21:29.525Z,7.9
2022-11-29T20:23:31.369Z,7.9
2022-11-29T20:25:33.215Z,7.9
2022-11-29T20:27:37.683Z,7.7
2022-11-29T20:29:39.452Z,7.7
2022-11-29T20:31:46.015Z,7.7
2022-11-29T20:35:47.611Z,7.4
2022-11-29T20:37:49.426Z,7.3
2022-11-29T20:41:55.771Z,7.1
2022-11-29T20:43:57.562Z,7
2022-11-29T20:46:02.143Z,7
2022-11-29T20:48:03.914Z,6.9
2022-11-29T20:50:05.733Z,6.9
2022-11-29T20:52:10.250Z,6.9
2022-11-29T20:54:12.052Z,6.9
2022-11-29T20:56:13.891Z,7
2022-11-29T20:58:18.400Z,7.1
2022-11-29T21:00:20.234Z,7.1
2022-11-29T21:02:22.033Z,7.1
2022-11-29T21:04:26.481Z,7.2
2022-11-29T21:08:30.086Z,7.2
2022-11-29T21:14:38.214Z,7.2
2022-11-29T21:18:44.518Z,7.3
2022-11-29T21:20:46.324Z,7.3
2022-11-29T21:22:50.831Z,7.3
2022-11-29T21:24:52.638Z,7.2
2022-11-29T21:26:54.444Z,7.2
2022-11-29T21:28:58.921Z,7.2
2022-11-29T21:31:00.757Z,7.1
2022-11-29T21:33:02.530Z,7.1
2022-11-29T21:38:08.889Z,7.1
2022-11-29T21:40:10.675Z,7.1
2022-11-29T21:42:12.534Z,7.1
2022-11-29T21:49:22.538Z,7
2022-11-29T21:53:28.834Z,6.8
2022-11-29T21:55:32.286Z,6.7
2022-11-29T21:57:32.464Z,6.8
2022-11-29T21:59:36.936Z,6.7
2022-11-29T22:01:38.959Z,6.8
2022-11-29T22:03:40.567Z,6.8
2022-11-29T22:05:45.083Z,6.7
2022-11-29T22:07:46.922Z,6.8
2022-11-29T22:09:48.658Z,6.8
2022-11-29T22:11:53.140Z,6.8
2022-11-29T22:13:55.089Z,6.8
2022-11-29T22:15:56.802Z,6.8
2022-11-29T22:18:01.269Z,6.7
2022-11-29T22:20:08.286Z,6.7
2022-11-29T22:22:04.936Z,6.7
2022-11-29T22:38:45.411Z,6.7
2022-11-29T22:40:47.219Z,6.6
2022-11-29T22:42:51.677Z,6.6
2022-11-29T22:46:55.333Z,6.5
2022-11-29T22:55:55.145Z,6.5
2022-11-29T22:57:58.765Z,6.4
2022-11-29T22:59:58.797Z,6.4
2022-11-29T23:08:58.617Z,6.3
2022-11-29T23:11:00.393Z,6.4
2022-11-29T23:13:02.205Z,6.4
2022-11-29T23:22:02.045Z,6.4
2022-11-29T23:24:03.804Z,6.3
2022-11-29T23:26:05.587Z,6.2
2022-11-29T23:28:10.053Z,6.1
2022-11-29T23:30:11.874Z,6.1
2022-11-29T23:34:18.105Z,6.2
2022-11-29T23:36:19.887Z,6.2
2022-11-29T23:38:21.676Z,6.2
2022-11-29T23:40:26.141Z,6.1
2022-11-29T23:42:27.929Z,6.2
2022-11-29T23:44:29.736Z,6.1
2022-11-29T23:46:34.169Z,6.2
2022-11-29T23:48:35.995Z,6.2
2022-11-29T23:50:37.787Z,6.2
2022-11-29T23:52:42.239Z,6.1
2022-11-29T23:56:45.857Z,6.2
2022-11-29T23:59:15.922Z,6.1
